createdAt,value
2023-05-09T00:02:02.913Z,15.93
2023-05-09T00:04:30.952Z,13.38
2023-05-09T00:06:59.372Z,15.27
2023-05-09T00:09:27.367Z,13.88
2023-05-09T00:11:55.287Z,13.80
2023-05-09T00:14:25.085Z,14.27
2023-05-09T00:16:53.861Z,13.00
2023-05-09T00:19:21.848Z,13.68
2023-05-09T00:21:49.756Z,14.25
2023-05-09T00:24:17.714Z,13.20
2023-05-09T00:26:45.483Z,12.57
2023-05-09T00:29:13.795Z,13.57
2023-05-09T00:31:41.792Z,13.98
2023-05-09T00:34:09.697Z,14.07
2023-05-09T00:36:41.799Z,12.75
2023-05-09T00:39:10.472Z,14.35
2023-05-09T00:41:38.596Z,14.20
2023-05-09T00:44:07.012Z,14.80
2023-05-09T00:46:39.850Z,13.55
2023-05-09T00:49:10.563Z,13.73
2023-05-09T00:51:41.200Z,14.15
2023-05-09T00:54:09.624Z,13.93
2023-05-09T00:56:37.954Z,12.57
2023-05-09T00:59:09.068Z,14.32
2023-05-09T01:01:37.101Z,11.70
2023-05-09T01:04:05.811Z,14.60
2023-05-09T01:07:07.306Z,12.07
2023-05-09T01:10:11.752Z,12.05
2023-05-09T01:13:04.834Z,12.52
2023-05-09T01:16:01.542Z,12.55
2023-05-09T01:19:16.701Z,12.90
2023-05-09T01:21:49.143Z,12.38
2023-05-09T01:25:06.916Z,11.88
2023-05-09T01:27:55.604Z,11.27
2023-05-09T01:30:26.800Z,10.13
2023-05-09T01:33:01.787Z,11.85
2023-05-09T01:35:33.576Z,10.63
2023-05-09T01:40:33.780Z,10.27
2023-05-09T01:43:09.988Z,12.30
2023-05-09T01:45:39.827Z,11.63
2023-05-09T01:48:10.381Z,13.05
2023-05-09T01:50:41.400Z,11.38
2023-05-09T01:53:12.760Z,12.88
2023-05-09T01:55:42.378Z,11.52
2023-05-09T01:58:10.925Z,12.15
2023-05-09T02:00:39.103Z,10.82
2023-05-09T02:03:13.614Z,12.65
2023-05-09T02:05:43.134Z,10.60
2023-05-09T02:08:12.228Z,11.40
2023-05-09T02:10:40.640Z,11.15
2023-05-09T02:13:10.394Z,12.27
2023-05-09T02:15:39.012Z,12.00
2023-05-09T02:18:07.140Z,12.98
2023-05-09T02:20:36.116Z,11.05
2023-05-09T02:23:04.462Z,13.45
2023-05-09T02:25:34.248Z,10.60
2023-05-09T02:28:03.040Z,11.98
2023-05-09T02:30:39.414Z,12.07
2023-05-09T02:33:10.446Z,14.50
2023-05-09T02:35:40.929Z,11.75
2023-05-09T02:38:09.006Z,15.13
2023-05-09T02:40:37.205Z,13.68
2023-05-09T02:43:05.324Z,14.10
2023-05-09T02:45:33.295Z,11.75
2023-05-09T02:48:01.482Z,13.50
2023-05-09T02:50:29.750Z,12.27
2023-05-09T02:52:57.877Z,12.80
2023-05-09T02:55:26.943Z,12.65
2023-05-09T02:58:09.318Z,12.77
2023-05-09T03:00:40.725Z,10.90
2023-05-09T03:03:09.575Z,13.63
2023-05-09T03:05:37.740Z,12.52
2023-05-09T03:08:06.198Z,13.43
2023-05-09T03:10:35.574Z,12.15
2023-05-09T03:13:04.070Z,14.57
2023-05-09T03:15:32.259Z,11.57
2023-05-09T03:18:01.530Z,13.18
2023-05-09T03:20:30.320Z,12.63
2023-05-09T03:22:59.088Z,14.48
2023-05-09T03:25:27.173Z,12.20
2023-05-09T03:27:55.242Z,13.57
2023-05-09T03:30:24.840Z,13.40
2023-05-09T03:32:53.096Z,12.95
2023-05-09T03:35:21.298Z,12.98
2023-05-09T03:37:49.373Z,13.05
2023-05-09T03:40:17.985Z,12.45
2023-05-09T03:42:52.525Z,11.05
2023-05-09T03:45:21.193Z,11.75
2023-05-09T03:47:49.163Z,11.63
2023-05-09T03:50:17.944Z,13.43
2023-05-09T03:52:46.475Z,11.93
2023-05-09T03:55:17.643Z,13.35
2023-05-09T03:57:46.408Z,11.15
2023-05-09T04:00:14.810Z,11.98
2023-05-09T04:02:46.768Z,9.88
2023-05-09T04:05:23.715Z,10.88
2023-05-09T04:07:53.468Z,10.80
2023-05-09T04:10:22.881Z,11.38
2023-05-09T04:12:51.636Z,11.93
2023-05-09T04:15:19.747Z,13.48
2023-05-09T04:17:47.694Z,14.63
2023-05-09T04:20:16.292Z,18.75
2023-05-09T04:22:46.781Z,12.68
2023-05-09T04:25:21.703Z,15.48
2023-05-09T04:27:49.706Z,13.85
2023-05-09T04:30:18.445Z,13.35
2023-05-09T04:32:49.278Z,12.48
2023-05-09T04:35:20.685Z,11.27
2023-05-09T04:37:50.533Z,13.13
2023-05-09T04:40:19.192Z,11.02
2023-05-09T04:42:55.189Z,12.52
2023-05-09T04:45:26.757Z,12.38
2023-05-09T04:47:55.975Z,12.57
2023-05-09T04:50:24.381Z,13.05
2023-05-09T04:52:52.227Z,12.50
2023-05-09T04:55:21.496Z,10.13
2023-05-09T04:57:51.075Z,10.40
2023-05-09T05:00:19.630Z,11.73
2023-05-09T05:02:49.482Z,10.18
2023-05-09T05:05:17.744Z,10.30
2023-05-09T05:07:45.814Z,12.75
2023-05-09T05:10:20.138Z,10.02
2023-05-09T05:12:51.969Z,10.88
2023-05-09T05:15:20.582Z,13.60
2023-05-09T05:17:50.039Z,13.05
2023-05-09T05:20:22.159Z,14.30
2023-05-09T05:22:51.298Z,15.18
2023-05-09T05:25:19.240Z,14.07
2023-05-09T05:27:49.548Z,13.75
2023-05-09T05:30:17.874Z,10.45
2023-05-09T05:32:45.877Z,8.75
2023-05-09T05:35:17.698Z,8.38
2023-05-09T05:37:47.635Z,7.30
2023-05-09T05:40:17.340Z,7.57
2023-05-09T05:42:48.310Z,9.73
2023-05-09T05:45:16.632Z,5.72
2023-05-09T05:47:49.126Z,6.03
2023-05-09T05:50:19.665Z,6.50
2023-05-09T05:52:48.192Z,8.38
2023-05-09T05:55:18.679Z,6.47
2023-05-09T05:57:47.792Z,6.95
2023-05-09T06:00:17.474Z,6.97
2023-05-09T06:02:49.384Z,6.50
2023-05-09T06:05:29.325Z,4.82
2023-05-09T06:07:58.663Z,7.13
2023-05-09T06:10:27.030Z,6.50
2023-05-09T06:12:55.071Z,7.03
2023-05-09T06:15:24.364Z,8.18
2023-05-09T06:17:52.368Z,7.70
2023-05-09T06:20:20.424Z,7.25
2023-05-09T06:22:53.647Z,7.90
2023-05-09T06:25:21.703Z,5.57
2023-05-09T06:27:49.669Z,5.47
2023-05-09T06:30:26.263Z,5.45
2023-05-09T06:32:55.710Z,4.95
2023-05-09T06:35:24.162Z,5.15
2023-05-09T06:37:52.323Z,5.40
2023-05-09T06:40:20.399Z,5.72
2023-05-09T06:42:48.492Z,5.38
2023-05-09T06:45:19.392Z,4.78
2023-05-09T06:47:48.438Z,4.32
2023-05-09T06:50:16.411Z,4.72
2023-05-09T06:52:44.584Z,3.75
2023-05-09T06:55:13.000Z,3.72
2023-05-09T06:57:41.793Z,4.55
2023-05-09T07:00:10.815Z,5.60
2023-05-09T07:02:46.252Z,5.15
2023-05-09T07:05:16.310Z,3.90
2023-05-09T07:07:44.776Z,5.18
2023-05-09T07:10:13.207Z,3.83
2023-05-09T07:12:41.743Z,3.38
2023-05-09T07:15:11.104Z,3.17
2023-05-09T07:17:39.675Z,2.55
2023-05-09T07:20:08.475Z,4.13
2023-05-09T07:22:37.635Z,3.70
2023-05-09T07:25:09.151Z,4.22
2023-05-09T07:27:37.534Z,3.13
2023-05-09T07:30:07.210Z,5.15
2023-05-09T07:32:35.945Z,3.05
2023-05-09T07:35:04.383Z,3.00
2023-05-09T07:37:32.418Z,2.88
2023-05-09T07:40:00.731Z,3.20
2023-05-09T07:42:30.489Z,2.97
2023-05-09T07:44:59.454Z,2.40
2023-05-09T07:47:27.792Z,2.60
2023-05-09T07:49:55.924Z,2.25
2023-05-09T07:52:23.926Z,2.30
2023-05-09T07:54:52.245Z,2.13
2023-05-09T07:57:20.407Z,3.10
2023-05-09T07:59:48.421Z,3.40
2023-05-09T08:02:16.688Z,3.90
2023-05-09T08:04:45.057Z,4.55
2023-05-09T08:07:13.160Z,4.82
2023-05-09T08:09:41.505Z,4.95
2023-05-09T08:12:09.710Z,5.15
2023-05-09T08:14:37.738Z,5.50
2023-05-09T08:17:06.048Z,6.03
2023-05-09T08:19:34.003Z,3.65
2023-05-09T08:22:02.036Z,4.97
2023-05-09T08:24:30.317Z,3.97
2023-05-09T08:26:58.537Z,5.43
2023-05-09T08:29:26.663Z,4.18
2023-05-09T08:31:54.921Z,4.63
2023-05-09T08:34:22.992Z,4.18
2023-05-09T08:36:51.032Z,4.35
2023-05-09T08:39:19.536Z,5.25
2023-05-09T08:41:47.682Z,5.32
2023-05-09T08:44:15.815Z,4.57
2023-05-09T08:46:47.547Z,5.35
2023-05-09T08:49:17.107Z,4.40
2023-05-09T08:51:46.972Z,4.90
2023-05-09T08:54:15.940Z,5.03
2023-05-09T08:56:44.075Z,5.18
2023-05-09T08:59:13.804Z,5.80
2023-05-09T09:01:42.755Z,3.85
2023-05-09T09:04:13.996Z,5.55
2023-05-09T09:06:42.974Z,5.65
2023-05-09T09:09:14.049Z,7.07
2023-05-09T09:11:42.874Z,4.68
2023-05-09T09:14:25.999Z,6.72
2023-05-09T09:16:57.628Z,4.38
2023-05-09T09:19:31.220Z,4.63
2023-05-09T09:22:02.822Z,6.43
2023-05-09T09:24:32.480Z,4.65
2023-05-09T09:27:06.630Z,5.18
2023-05-09T09:29:35.173Z,4.32
2023-05-09T09:32:05.913Z,4.72
2023-05-09T09:34:34.143Z,3.25
2023-05-09T09:37:02.287Z,5.72
2023-05-09T09:39:30.372Z,4.05
2023-05-09T09:42:13.628Z,5.55
2023-05-09T09:44:41.994Z,4.85
2023-05-09T09:47:11.571Z,6.43
2023-05-09T09:49:47.584Z,4.30
2023-05-09T09:52:27.096Z,4.72
2023-05-09T09:54:58.446Z,4.22
2023-05-09T09:57:37.958Z,4.57
2023-05-09T10:00:07.922Z,6.13
2023-05-09T10:02:48.468Z,4.78
2023-05-09T10:05:22.099Z,5.07
2023-05-09T10:08:02.085Z,5.75
2023-05-09T10:10:34.158Z,5.65
2023-05-09T10:13:08.051Z,5.43
2023-05-09T10:15:49.434Z,4.07
2023-05-09T10:18:27.932Z,3.75
2023-05-09T10:21:01.312Z,4.55
2023-05-09T10:23:32.997Z,5.60
2023-05-09T10:26:13.114Z,5.47
2023-05-09T10:28:44.717Z,4.93
2023-05-09T10:33:49.249Z,4.05
2023-05-09T10:36:23.347Z,4.50
2023-05-09T10:38:56.482Z,4.78
2023-05-09T10:41:25.949Z,4.78
2023-05-09T10:43:58.427Z,4.20
2023-05-09T10:46:27.929Z,5.40
2023-05-09T10:48:56.344Z,5.38
2023-05-09T10:51:25.198Z,4.60
2023-05-09T10:53:54.331Z,4.80
2023-05-09T10:56:40.026Z,4.53
2023-05-09T10:59:36.090Z,5.63
2023-05-09T11:02:05.758Z,5.97
2023-05-09T11:04:33.938Z,4.35
2023-05-09T11:07:02.174Z,6.18
2023-05-09T11:09:38.859Z,4.82
2023-05-09T11:12:13.762Z,5.38
2023-05-09T11:14:47.453Z,4.80
2023-05-09T11:17:22.253Z,4.50
2023-05-09T11:19:50.520Z,5.97
2023-05-09T11:22:24.853Z,4.28
2023-05-09T11:24:59.967Z,4.82
2023-05-09T11:27:29.808Z,3.85
2023-05-09T11:30:00.106Z,4.22
2023-05-09T11:32:33.288Z,3.60
2023-05-09T11:35:15.661Z,4.80
2023-05-09T11:37:48.392Z,4.10
2023-05-09T11:40:22.681Z,2.78
2023-05-09T11:42:57.054Z,3.53
2023-05-09T11:45:33.585Z,3.20
2023-05-09T11:48:03.488Z,4.68
2023-05-09T11:50:31.805Z,3.55
2023-05-09T11:52:59.939Z,4.43
2023-05-09T11:55:31.793Z,4.15
2023-05-09T11:58:00.338Z,5.10
2023-05-09T12:00:28.478Z,4.15
2023-05-09T12:02:56.961Z,5.15
2023-05-09T12:05:26.439Z,4.25
2023-05-09T12:07:55.398Z,3.35
2023-05-09T12:10:24.115Z,3.40
2023-05-09T12:12:55.773Z,3.92
2023-05-09T12:15:25.176Z,4.55
2023-05-09T12:18:05.477Z,4.22
2023-05-09T12:20:52.962Z,3.63
2023-05-09T12:23:21.900Z,3.28
2023-05-09T12:25:59.006Z,4.30
2023-05-09T12:28:27.737Z,4.97
2023-05-09T12:30:56.388Z,4.57
2023-05-09T12:33:25.686Z,5.28
2023-05-09T12:36:11.477Z,4.53
2023-05-09T12:38:40.101Z,4.30
2023-05-09T12:41:31.040Z,4.13
2023-05-09T12:44:01.392Z,4.88
2023-05-09T12:46:30.082Z,3.40
2023-05-09T12:48:59.670Z,4.20
2023-05-09T12:51:27.751Z,2.72
2023-05-09T12:54:03.415Z,4.47
2023-05-09T12:56:35.101Z,3.92
2023-05-09T12:59:03.338Z,4.53
2023-05-09T13:01:31.609Z,3.60
2023-05-09T13:04:07.732Z,4.30
2023-05-09T13:06:47.804Z,4.63
2023-05-09T13:09:16.815Z,3.78
2023-05-09T13:11:47.043Z,3.63
2023-05-09T13:14:16.621Z,3.35
2023-05-09T13:16:45.723Z,4.55
2023-05-09T13:19:13.816Z,5.30
2023-05-09T13:21:42.106Z,4.43
2023-05-09T13:24:10.597Z,5.38
2023-05-09T13:26:38.987Z,5.35
2023-05-09T13:29:08.053Z,4.47
2023-05-09T13:31:36.465Z,3.38
2023-05-09T13:34:04.474Z,5.40
2023-05-09T13:36:32.826Z,3.78
2023-05-09T13:39:01.232Z,4.72
2023-05-09T13:41:32.018Z,4.28
2023-05-09T13:44:00.752Z,5.93
2023-05-09T13:46:29.588Z,4.25
2023-05-09T13:48:58.449Z,4.25
2023-05-09T13:51:27.382Z,4.15
2023-05-09T13:53:55.800Z,4.05
2023-05-09T13:56:25.309Z,4.45
2023-05-09T13:58:53.528Z,4.53
2023-05-09T14:01:21.762Z,3.28
2023-05-09T14:03:49.995Z,2.85
2023-05-09T14:06:18.564Z,3.22
2023-05-09T14:08:46.665Z,3.42
2023-05-09T14:11:14.588Z,2.85
2023-05-09T14:13:42.640Z,3.20
2023-05-09T14:16:10.950Z,3.78
2023-05-09T14:18:39.355Z,2.00
2023-05-09T14:21:07.852Z,4.40
2023-05-09T14:23:36.015Z,3.28
2023-05-09T14:26:04.670Z,3.63
2023-05-09T14:28:32.828Z,3.30
2023-05-09T14:31:01.553Z,3.88
2023-05-09T14:33:29.744Z,3.20
2023-05-09T14:35:57.892Z,4.05
2023-05-09T14:38:26.064Z,3.83
2023-05-09T14:40:54.432Z,2.72
2023-05-09T14:43:22.813Z,2.70
2023-05-09T14:45:51.748Z,3.17
2023-05-09T14:48:19.772Z,3.20
2023-05-09T14:50:49.920Z,2.70
2023-05-09T14:53:18.134Z,4.15
2023-05-09T14:55:46.563Z,3.53
2023-05-09T14:58:16.107Z,3.65
2023-05-09T15:00:47.749Z,2.75
2023-05-09T15:03:16.016Z,4.40
2023-05-09T15:05:44.429Z,2.55
2023-05-09T15:08:12.911Z,3.10
2023-05-09T15:10:41.263Z,3.13
2023-05-09T15:13:09.694Z,4.30
2023-05-09T15:15:40.933Z,3.75
2023-05-09T15:18:11.394Z,3.80
2023-05-09T15:20:39.591Z,2.92
2023-05-09T15:23:08.315Z,3.85
2023-05-09T15:25:36.820Z,2.92
2023-05-09T15:28:05.324Z,4.05
2023-05-09T15:30:34.335Z,3.13
2023-05-09T15:33:03.542Z,3.72
2023-05-09T15:35:31.672Z,3.65
2023-05-09T15:38:00.303Z,4.18
2023-05-09T15:40:28.652Z,4.53
2023-05-09T15:42:56.601Z,3.83
2023-05-09T15:45:24.703Z,4.45
2023-05-09T15:47:53.019Z,3.53
2023-05-09T15:50:21.455Z,3.17
2023-05-09T15:52:53.563Z,3.63
2023-05-09T15:55:23.291Z,5.32
2023-05-09T15:57:52.614Z,4.05
2023-05-09T16:00:20.969Z,4.63
2023-05-09T16:02:49.516Z,3.83
2023-05-09T16:05:18.152Z,3.40
2023-05-09T16:07:47.767Z,4.18
2023-05-09T16:10:16.498Z,3.22
2023-05-09T16:12:44.790Z,3.50
2023-05-09T16:15:13.100Z,4.85
2023-05-09T16:17:41.375Z,3.95
2023-05-09T16:20:13.927Z,3.83
2023-05-09T16:22:42.575Z,3.83
2023-05-09T16:25:11.532Z,4.15
2023-05-09T16:27:40.822Z,3.75
2023-05-09T16:30:11.263Z,4.22
2023-05-09T16:32:39.432Z,4.50
2023-05-09T16:35:08.322Z,4.75
2023-05-09T16:37:36.748Z,3.72
2023-05-09T16:40:05.802Z,4.70
2023-05-09T16:42:33.837Z,3.58
2023-05-09T16:45:02.137Z,4.68
2023-05-09T16:47:30.192Z,3.33
2023-05-09T16:49:59.186Z,4.45
2023-05-09T16:52:27.366Z,4.25
2023-05-09T16:54:55.890Z,4.53
2023-05-09T16:57:26.067Z,4.22
2023-05-09T16:59:54.786Z,3.63
2023-05-09T17:02:23.147Z,4.20
2023-05-09T17:04:52.057Z,4.10
2023-05-09T17:07:20.541Z,3.42
2023-05-09T17:09:49.758Z,2.90
2023-05-09T17:12:18.891Z,2.55
2023-05-09T17:14:48.117Z,2.85
2023-05-09T17:17:17.796Z,2.78
2023-05-09T17:19:46.087Z,3.10
2023-05-09T17:22:14.193Z,3.67
2023-05-09T17:24:42.323Z,2.67
2023-05-09T17:27:12.247Z,2.65
2023-05-09T17:29:40.652Z,2.72
2023-05-09T17:32:08.844Z,3.33
2023-05-09T17:34:38.229Z,2.83
2023-05-09T17:37:07.441Z,3.78
2023-05-09T17:39:39.204Z,3.10
2023-05-09T17:42:07.944Z,3.22
2023-05-09T17:44:36.487Z,3.47
2023-05-09T17:47:05.799Z,4.80
2023-05-09T17:49:34.141Z,4.55
2023-05-09T17:52:02.488Z,5.68
2023-05-09T17:54:30.822Z,4.68
2023-05-09T17:57:02.337Z,5.28
2023-05-09T17:59:30.792Z,5.20
2023-05-09T18:01:59.074Z,5.88
2023-05-09T18:04:30.418Z,5.95
2023-05-09T18:06:58.705Z,6.47
2023-05-09T18:09:27.307Z,6.32
2023-05-09T18:11:59.332Z,7.30
2023-05-09T18:14:27.717Z,6.13
2023-05-09T18:16:56.044Z,5.43
2023-05-09T18:19:24.456Z,6.40
2023-05-09T18:21:53.124Z,5.35
2023-05-09T18:24:22.210Z,6.70
2023-05-09T18:26:50.698Z,6.90
2023-05-09T18:29:18.715Z,7.05
2023-05-09T18:31:47.096Z,6.28
2023-05-09T18:34:15.516Z,6.45
2023-05-09T18:36:43.588Z,6.50
2023-05-09T18:39:12.561Z,7.30
2023-05-09T18:41:41.398Z,6.07
2023-05-09T18:44:10.380Z,7.60
2023-05-09T18:46:39.025Z,6.80
2023-05-09T18:49:07.486Z,9.35
2023-05-09T18:51:36.143Z,10.60
2023-05-09T18:54:04.649Z,10.82
2023-05-09T18:56:39.611Z,6.80
2023-05-09T18:59:12.127Z,8.20
2023-05-09T19:01:42.777Z,6.57
2023-05-09T19:04:11.487Z,9.48
2023-05-09T19:06:40.085Z,20.70
2023-05-09T19:09:08.607Z,19.13
2023-05-09T19:11:38.256Z,11.95
2023-05-09T19:14:06.774Z,11.48
2023-05-09T19:16:35.220Z,11.80
2023-05-09T19:19:03.458Z,14.25
2023-05-09T19:21:32.981Z,8.95
2023-05-09T19:24:04.090Z,8.90
2023-05-09T19:26:32.520Z,8.05
2023-05-09T19:29:04.181Z,8.60
2023-05-09T19:31:32.957Z,11.60
2023-05-09T19:34:01.110Z,11.82
2023-05-09T19:36:29.774Z,7.95
2023-05-09T19:38:58.607Z,7.45
2023-05-09T19:41:26.935Z,9.25
2023-05-09T19:43:55.462Z,8.07
2023-05-09T19:46:24.027Z,7.10
2023-05-09T19:48:52.908Z,7.63
2023-05-09T19:51:21.490Z,9.90
2023-05-09T19:53:50.011Z,12.27
2023-05-09T19:56:18.408Z,15.20
2023-05-09T19:58:49.787Z,10.20
2023-05-09T20:01:20.099Z,7.60
2023-05-09T20:03:50.724Z,9.50
2023-05-09T20:06:19.559Z,7.45
2023-05-09T20:08:47.954Z,6.85
2023-05-09T20:11:16.870Z,9.57
2023-05-09T20:13:45.423Z,9.35
2023-05-09T20:16:13.849Z,8.93
2023-05-09T20:18:42.227Z,9.13
2023-05-09T20:21:11.649Z,10.57
2023-05-09T20:23:40.096Z,7.50
2023-05-09T20:26:08.336Z,8.80
2023-05-09T20:28:36.753Z,7.13
2023-05-09T20:31:04.959Z,9.35
2023-05-09T20:33:33.132Z,7.15
2023-05-09T20:36:02.065Z,7.93
2023-05-09T20:38:30.435Z,6.75
2023-05-09T20:40:58.667Z,8.18
2023-05-09T20:43:26.806Z,7.85
2023-05-09T20:45:55.245Z,6.50
2023-05-09T20:48:23.707Z,6.38
2023-05-09T20:50:52.026Z,5.90
2023-05-09T20:53:20.761Z,7.20
2023-05-09T20:55:50.483Z,7.75
2023-05-09T20:58:19.092Z,7.10
2023-05-09T21:00:47.534Z,6.47
2023-05-09T21:03:15.704Z,7.80
2023-05-09T21:05:44.631Z,7.13
2023-05-09T21:08:12.998Z,7.20
2023-05-09T21:10:41.270Z,11.25
2023-05-09T21:13:09.600Z,8.68
2023-05-09T21:15:38.103Z,7.07
2023-05-09T21:18:06.184Z,8.52
2023-05-09T21:20:34.350Z,5.97
2023-05-09T21:23:02.350Z,8.15
2023-05-09T21:25:30.338Z,7.50
2023-05-09T21:27:58.287Z,7.97
2023-05-09T21:30:26.523Z,8.07
2023-05-09T21:32:54.482Z,8.05
2023-05-09T21:35:22.925Z,8.70
2023-05-09T21:37:52.722Z,15.10
2023-05-09T21:40:20.658Z,12.88
2023-05-09T21:42:49.063Z,10.32
2023-05-09T21:45:18.867Z,11.02
2023-05-09T21:47:46.888Z,8.40
2023-05-09T21:50:15.231Z,7.82
2023-05-09T21:52:43.576Z,11.63
2023-05-09T21:55:12.291Z,11.82
2023-05-09T21:57:40.205Z,19.83
2023-05-09T22:00:15.473Z,13.95
2023-05-09T22:02:43.620Z,12.88
2023-05-09T22:05:12.760Z,7.90
2023-05-09T22:07:41.120Z,6.45
2023-05-09T22:10:10.850Z,8.68
2023-05-09T22:12:39.062Z,6.65
2023-05-09T22:15:08.270Z,8.40
2023-05-09T22:17:36.929Z,5.80
2023-05-09T22:20:05.969Z,7.63
2023-05-09T22:22:34.088Z,6.90
2023-05-09T22:25:04.086Z,7.70
2023-05-09T22:27:32.194Z,5.95
2023-05-09T22:30:00.373Z,7.32
2023-05-09T22:32:28.666Z,6.63
2023-05-09T22:34:57.026Z,5.40
2023-05-09T22:37:25.150Z,5.68
2023-05-09T22:39:53.434Z,7.18
2023-05-09T22:42:21.607Z,5.65
2023-05-09T22:44:50.139Z,6.57
2023-05-09T22:47:18.291Z,5.97
2023-05-09T22:49:46.458Z,6.88
2023-05-09T22:52:14.754Z,6.65
2023-05-09T22:54:43.080Z,5.97
2023-05-09T22:57:11.334Z,7.93
2023-05-09T22:59:39.483Z,6.47
2023-05-09T23:02:07.593Z,7.60
2023-05-09T23:04:35.705Z,6.18
2023-05-09T23:07:03.779Z,6.78
2023-05-09T23:09:31.708Z,5.80
2023-05-09T23:11:59.729Z,6.88
2023-05-09T23:14:28.403Z,6.35
2023-05-09T23:16:56.733Z,7.18
2023-05-09T23:19:24.957Z,7.07
2023-05-09T23:21:53.626Z,6.78
2023-05-09T23:24:21.862Z,7.40
2023-05-09T23:26:49.962Z,6.43
2023-05-09T23:29:18.188Z,6.57
2023-05-09T23:31:46.723Z,6.82
2023-05-09T23:34:14.992Z,7.50
2023-05-09T23:36:43.019Z,6.03
2023-05-09T23:39:12.144Z,7.70
2023-05-09T23:41:40.120Z,6.88
2023-05-09T23:44:08.198Z,7.47
2023-05-09T23:46:36.387Z,6.15
2023-05-09T23:49:04.623Z,8.00
2023-05-09T23:51:33.104Z,6.00
2023-05-09T23:54:00.983Z,7.55
2023-05-09T23:56:28.960Z,6.32
2023-05-09T23:58:57.019Z,5.82
